KLAW/LAW METAR and TAF weather

Enter ICAO airport designator
Station Type Date Time Source
KLAW METAR 2019/12/07 16:53 UTC NOAA

KLAW 071653Z 13004KT 10SM CLR 09/00 A3033 RMK AO2 SLP274 T00940000 $


Station Type Date Time Source
KLAW Decoded METAR 2019/12/07 16:53 UTC NOAA

LAWTON - FORT SILL REGIONAL, OK, United States (KLAW) 34-34N 98-25W 337M
Dec 07, 2019 - 11:53 AM EST / 2019.12.07 1653 UTC
Wind: from the SE (130 degrees) at 5 MPH (4 KT):0
Visibility: 10 mile(s):0
Sky conditions: clear
Temperature: 48.9 F (9.4 C)
Dew Point: 32.0 F (0.0 C)
Relative Humidity: 51%
Pressure (altimeter): 30.33 in. Hg (1027 hPa)
ob: KLAW 071653Z 13004KT 10SM CLR 09/00 A3033 RMK AO2 SLP274 T00940000
cycle: 17

Station Type Date Time Source
KLAW TAF 2019/12/07 18:40 UTC NOAA

TAF KLAW 071738Z 0718/0818 17009KT P6SM BKN250

Example: see airport list